Time;durP1;ratioP1;P1;durP2;ratioP2;P2;SDS_P1;SDS_P2;PMS_P1;PMS_P2;Temp;Humidity;BMP_temperature;BMP_pressure;BME280_temperature;BME280_humidity;BME280_pressure;Samples;Min_cycle;Max_cycle;Signal;HPM_P1;HPM_P2
2023/06/23 00:00:36;;;;;;;1.97;1.80;;;;;;;26.36;46.38;98720.75;6973952;28;20296;-85
2023/06/23 00:03:59;;;;;;;2.53;1.90;;;;;;;26.40;46.71;98707.13;6978252;28;20240;-86
2023/06/23 00:07:20;;;;;;;1.80;1.70;;;;;;;26.37;46.21;98694.72;6977923;28;20207;-85
2023/06/23 00:10:43;;;;;;;1.90;1.80;;;;;;;26.56;45.58;98684.41;6977501;28;20234;-86
2023/06/23 00:14:05;;;;;;;1.93;1.80;;;;;;;26.95;45.61;98728.03;6977232;28;20302;-86
2023/06/23 00:17:27;;;;;;;1.87;1.77;;;;;;;26.69;45.05;98650.34;6976993;28;20346;-86
2023/06/23 00:20:49;;;;;;;2.60;2.00;;;;;;;26.21;46.77;98657.50;6977412;28;20323;-85
2023/06/23 00:24:11;;;;;;;2.13;1.70;;;;;;;26.55;46.75;98713.16;6977012;28;20222;-86
2023/06/23 00:27:34;;;;;;;2.10;1.90;;;;;;;25.77;48.09;98671.09;6976473;28;20793;-86
2023/06/23 00:30:55;;;;;;;2.53;2.10;;;;;;;26.21;48.17;98729.38;6976757;28;20337;-85
2023/06/23 00:34:18;;;;;;;1.90;1.80;;;;;;;26.12;48.59;98755.28;6977411;28;20642;-86
2023/06/23 00:37:40;;;;;;;1.80;1.70;;;;;;;25.80;49.67;98745.06;6976646;28;20297;-86
2023/06/23 00:41:02;;;;;;;2.53;2.03;;;;;;;25.66;50.47;98765.50;6976766;28;20446;-85
2023/06/23 00:44:23;;;;;;;4.33;2.23;;;;;;;25.90;49.83;98735.81;6977516;28;20266;-85
2023/06/23 00:47:45;;;;;;;4.53;2.17;;;;;;;25.92;49.08;98695.69;6976860;28;20241;-85
2023/06/23 00:51:08;;;;;;;3.77;2.13;;;;;;;25.22;50.03;98622.44;6976668;28;20222;-86
2023/06/23 00:54:34;;;;;;;2.87;1.97;;;;;;;25.51;51.56;98744.50;7004225;28;20198;-86
2023/06/23 00:57:57;;;;;;;3.07;2.10;;;;;;;25.09;53.10;98761.19;7003749;28;20233;-85
2023/06/23 01:01:20;;;;;;;2.93;2.17;;;;;;;24.93;53.50;98723.09;6973617;28;20254;-85
2023/06/23 01:04:41;;;;;;;2.07;1.77;;;;;;;25.25;53.17;98742.47;6979137;28;20654;-85
2023/06/23 01:08:15;;;;;;;2.10;2.00;;;;;;;24.89;54.11;98739.41;6980746;28;20277;-85
2023/06/23 01:11:43;;;;;;;2.37;2.17;;;;;;;25.10;53.41;98737.16;6978258;28;20257;-86
2023/06/23 01:15:06;;;;;;;3.50;2.30;;;;;;;25.38;52.76;98728.72;6976914;28;20673;-85
2023/06/23 01:18:33;;;;;;;2.17;2.00;;;;;;;25.23;53.42;98767.56;6975832;28;20199;-85
2023/06/23 01:22:01;;;;;;;2.67;2.30;;;;;;;24.60;56.55;98766.31;6977012;28;20248;-86
2023/06/23 01:25:37;;;;;;;2.53;2.03;;;;;;;24.99;55.72;98768.78;6977108;28;20239;-85
2023/06/23 01:29:01;;;;;;;2.37;2.17;;;;;;;24.83;56.59;98778.44;6980188;28;20230;-85
2023/06/23 01:32:27;;;;;;;2.63;2.43;;;;;;;24.97;55.84;98774.63;6976225;28;20224;-85
2023/06/23 01:35:53;;;;;;;3.00;2.70;;;;;;;24.09;59.83;98772.72;6975736;28;20206;-86
2023/06/23 01:39:17;;;;;;;2.63;2.43;;;;;;;23.87;61.38;98798.03;6975057;28;20252;-85
2023/06/23 01:42:43;;;;;;;3.30;3.10;;;;;;;23.79;61.95;98806.06;6975197;28;20289;-85
2023/06/23 01:46:09;;;;;;;3.60;3.30;;;;;;;23.43;63.38;98805.53;6975386;28;20651;-85
2023/06/23 01:49:36;;;;;;;3.60;3.30;;;;;;;22.99;65.54;98809.41;6975024;28;20219;-85
2023/06/23 01:52:58;;;;;;;4.10;3.80;;;;;;;22.85;66.10;98786.41;6975009;28;20305;-85
2023/06/23 01:56:22;;;;;;;4.37;3.97;;;;;;;22.76;66.44;98805.44;6974651;28;20582;-85
2023/06/23 01:59:44;;;;;;;4.37;3.97;;;;;;;22.53;67.44;98819.84;6974250;28;20692;-86
2023/06/23 02:03:09;;;;;;;4.87;4.30;;;;;;;22.73;67.22;98807.94;6992061;28;20243;-85
2023/06/23 02:06:30;;;;;;;4.97;4.57;;;;;;;23.11;65.16;98840.16;6995853;28;20211;-86
2023/06/23 02:09:53;;;;;;;5.37;4.17;;;;;;;23.11;63.81;98840.97;6974626;28;20220;-86
2023/06/23 02:13:15;;;;;;;5.10;4.60;;;;;;;23.08;62.58;98847.03;6974790;28;20745;-85
2023/06/23 02:16:37;;;;;;;5.53;5.03;;;;;;;22.45;62.00;98751.75;6973792;28;20213;-85
2023/06/23 02:20:00;;;;;;;5.20;4.70;;;;;;;22.72;61.43;98806.28;6975320;28;20829;-85
2023/06/23 02:23:23;;;;;;;5.80;5.20;;;;;;;23.23;59.95;98863.50;6973404;28;20361;-85
2023/06/23 02:26:47;;;;;;;5.63;5.13;;;;;;;23.02;60.52;98870.19;6973431;28;20210;-85
2023/06/23 02:30:09;;;;;;;5.17;4.77;;;;;;;23.33;59.65;98884.59;6973445;28;20259;-85
2023/06/23 02:33:31;;;;;;;4.93;4.53;;;;;;;23.29;60.24;98847.75;6973621;28;20214;-86
2023/06/23 02:36:56;;;;;;;4.60;4.20;;;;;;;22.80;60.22;98833.19;6973343;28;20299;-86
2023/06/23 02:40:19;;;;;;;4.40;4.00;;;;;;;22.03;62.15;98791.69;6973753;28;20258;-86
2023/06/23 02:43:44;;;;;;;3.93;3.60;;;;;;;22.63;62.17;98880.28;6973609;28;20207;-86
2023/06/23 02:47:09;;;;;;;4.13;3.77;;;;;;;22.46;62.33;98889.94;6971446;28;20247;-86
2023/06/23 02:50:33;;;;;;;4.10;3.80;;;;;;;21.89;61.96;98791.47;6949811;28;20330;-85
2023/06/23 02:54:00;;;;;;;4.23;3.80;;;;;;;22.74;60.53;98845.31;6945224;28;20206;-85
2023/06/23 02:57:23;;;;;;;4.30;3.90;;;;;;;22.66;60.81;98885.19;6944427;28;20220;-85
2023/06/23 03:00:45;;;;;;;5.30;4.50;;;;;;;22.09;61.83;98849.09;6943734;28;20330;-85
2023/06/23 03:04:07;;;;;;;5.03;4.53;;;;;;;22.28;61.85;98888.59;6945023;28;20711;-86
2023/06/23 03:07:29;;;;;;;5.17;4.70;;;;;;;22.00;61.40;98830.69;6945561;28;20199;-85
2023/06/23 03:10:52;;;;;;;4.83;4.43;;;;;;;22.93;60.30;98923.31;6945366;28;20720;-86
2023/06/23 03:14:14;;;;;;;5.40;4.43;;;;;;;22.82;59.98;98892.28;6946513;28;20232;-85
2023/06/23 03:17:37;;;;;;;5.13;4.73;;;;;;;22.75;60.62;98930.25;6946029;28;20221;-85
2023/06/23 03:21:00;;;;;;;4.83;4.43;;;;;;;22.78;60.18;98909.63;6947451;28;20226;-85
2023/06/23 03:24:23;;;;;;;4.93;4.53;;;;;;;23.00;59.41;98916.41;6946367;28;20301;-85
2023/06/23 03:27:47;;;;;;;5.70;5.20;;;;;;;23.28;58.58;98931.41;6945768;28;20274;-85
2023/06/23 03:31:12;;;;;;;6.07;5.57;;;;;;;23.17;58.81;98932.56;6947395;28;20693;-85
2023/06/23 03:34:41;;;;;;;6.33;5.73;;;;;;;22.89;58.95;98928.56;6949053;28;20208;-85
2023/06/23 03:38:04;;;;;;;7.13;6.43;;;;;;;22.82;59.14;98914.28;6951537;28;20181;-85
2023/06/23 03:41:28;;;;;;;7.30;6.60;;;;;;;22.71;59.65;98915.41;6951800;28;20227;-85
2023/06/23 03:44:52;;;;;;;7.43;6.50;;;;;;;23.13;59.27;98957.03;6951762;28;20202;-85
2023/06/23 03:48:15;;;;;;;8.93;7.17;;;;;;;22.90;58.70;98910.94;6950990;28;20247;-85
2023/06/23 03:51:38;;;;;;;8.53;7.67;;;;;;;23.03;59.72;98959.88;6952396;28;20230;-85
2023/06/23 03:54:59;;;;;;;9.80;8.80;;;;;;;22.50;61.21;98938.59;6952278;28;20231;-85
2023/06/23 03:58:22;;;;;;;9.80;8.90;;;;;;;22.93;60.13;98959.06;6951238;28;20206;-85
2023/06/23 04:01:48;;;;;;;10.73;9.63;;;;;;;22.61;60.85;98956.69;6950592;28;20270;-85
2023/06/23 04:05:12;;;;;;;10.53;9.53;;;;;;;22.65;60.39;98960.53;6951482;28;20258;-85
2023/06/23 04:08:35;;;;;;;9.93;8.93;;;;;;;22.77;60.69;98983.03;6951357;28;20202;-85
2023/06/23 04:11:57;;;;;;;10.50;9.50;;;;;;;23.12;58.85;98963.66;6954076;28;20254;-85
2023/06/23 04:15:19;;;;;;;9.67;8.50;;;;;;;23.27;58.21;98973.78;6954109;28;20234;-85
2023/06/23 04:18:43;;;;;;;9.67;8.77;;;;;;;23.12;58.08;98971.91;6950454;28;20211;-85
2023/06/23 04:22:07;;;;;;;9.90;9.00;;;;;;;22.53;58.71;98968.25;6951912;28;20208;-86
2023/06/23 04:25:28;;;;;;;9.70;8.80;;;;;;;22.43;58.53;98972.94;6950716;28;20685;-85
2023/06/23 04:28:52;;;;;;;10.40;9.50;;;;;;;22.92;58.11;98990.41;6950637;28;20319;-85
2023/06/23 04:32:16;;;;;;;10.57;8.93;;;;;;;22.78;57.69;98987.41;6951066;28;20252;-85
2023/06/23 04:35:39;;;;;;;10.23;9.17;;;;;;;22.77;57.50;98995.97;6951012;28;20236;-85
2023/06/23 04:39:06;;;;;;;10.53;9.43;;;;;;;22.70;57.21;98999.00;6949809;28;20244;-85
2023/06/23 04:42:30;;;;;;;10.87;9.80;;;;;;;23.11;56.51;99016.19;6957440;28;20223;-85
2023/06/23 04:45:56;;;;;;;10.83;9.67;;;;;;;22.76;56.55;99006.13;6949252;28;20296;-86
2023/06/23 04:49:20;;;;;;;10.77;9.77;;;;;;;22.98;56.58;99030.53;6952697;28;20234;-86
2023/06/23 04:52:51;;;;;;;10.00;8.93;;;;;;;23.41;55.35;99033.44;6950825;28;20380;-85
2023/06/23 04:56:15;;;;;;;10.20;9.27;;;;;;;23.62;54.50;99035.00;6950051;28;20285;-86
2023/06/23 04:59:39;;;;;;;11.43;10.23;;;;;;;23.42;54.95;99043.34;6949746;28;20227;-85
2023/06/23 05:03:17;;;;;;;11.60;10.40;;;;;;;23.35;54.08;99008.97;6949116;28;20363;-86
2023/06/23 05:06:39;;;;;;;11.50;10.20;;;;;;;23.56;54.13;99049.91;6950137;28;20314;-87
2023/06/23 05:10:02;;;;;;;11.43;10.27;;;;;;;24.15;52.04;99047.09;6950750;28;20313;-88
2023/06/23 05:13:24;;;;;;;12.67;11.47;;;;;;;23.40;52.58;98970.41;6949762;28;20227;-85
2023/06/23 05:16:48;;;;;;;13.33;11.93;;;;;;;22.90;53.54;98949.44;6949510;28;20203;-88
2023/06/23 05:20:11;;;;;;;15.10;11.23;;;;;;;23.21;53.85;99036.28;6959214;28;20357;-88
2023/06/23 05:23:34;;;;;;;13.37;11.97;;;;;;;23.35;53.35;99051.09;6966735;28;20275;-88
2023/06/23 05:26:59;;;;;;;12.90;11.67;;;;;;;23.08;53.41;99014.81;6974239;28;20248;-88
2023/06/23 05:30:21;;;;;;;15.57;12.80;;;;;;;22.93;53.99;99045.16;6979507;28;20599;-88
2023/06/23 05:33:45;;;;;;;13.60;12.13;;;;;;;23.15;53.54;99059.38;6981086;28;20323;-88
2023/06/23 05:37:20;;;;;;;14.47;13.17;;;;;;;23.37;53.49;99070.88;6974509;28;20268;-88
2023/06/23 05:40:42;;;;;;;16.03;13.40;;;;;;;23.54;52.79;99065.84;6974191;28;20224;-88
2023/06/23 05:44:05;;;;;;;16.07;14.37;;;;;;;23.56;52.08;99060.06;6969108;28;20352;-89
2023/06/23 05:47:30;;;;;;;15.37;13.87;;;;;;;23.89;51.37;99071.22;6972044;28;20352;-88
2023/06/23 05:50:51;;;;;;;14.20;12.67;;;;;;;23.58;52.48;99071.63;6976055;28;20754;-88
2023/06/23 05:54:14;;;;;;;15.53;13.73;;;;;;;23.19;52.75;99004.66;6976216;28;20309;-89
2023/06/23 05:57:36;;;;;;;17.57;15.77;;;;;;;23.91;50.58;99073.69;6980147;28;20232;-89
2023/06/23 06:01:01;;;;;;;16.83;15.20;;;;;;;23.80;51.85;99067.41;6995347;28;20276;-89
2023/06/23 06:04:26;;;;;;;19.23;16.13;;;;;;;23.58;51.90;99075.22;6975665;28;20679;-89
2023/06/23 06:08:05;;;;;;;19.13;16.30;;;;;;;23.61;51.30;99057.31;6974318;28;20215;-89
2023/06/23 06:11:28;;;;;;;17.80;15.80;;;;;;;23.44;51.48;99087.09;6975136;28;20356;-87
2023/06/23 06:14:50;;;;;;;18.77;16.83;;;;;;;23.26;51.70;99101.47;6975070;28;20292;-87
2023/06/23 06:18:14;;;;;;;18.23;16.40;;;;;;;23.55;52.07;99099.72;6975234;28;20218;-87
2023/06/23 06:21:37;;;;;;;19.40;17.23;;;;;;;24.05;49.96;99077.44;6974245;28;20231;-88
2023/06/23 06:25:00;;;;;;;21.00;16.83;;;;;;;23.77;50.75;99094.69;6975246;28;20309;-87
2023/06/23 06:28:22;;;;;;;19.17;17.17;;;;;;;23.45;50.93;99113.53;6969974;28;20795;-87
2023/06/23 06:31:45;;;;;;;18.77;16.47;;;;;;;23.83;50.42;99118.34;6948033;28;20759;-87
2023/06/23 06:35:09;;;;;;;18.87;16.83;;;;;;;23.72;50.48;99125.78;6947219;28;20206;-88
2023/06/23 06:38:34;;;;;;;18.37;15.90;;;;;;;23.98;50.07;99138.38;6946937;28;20295;-88
2023/06/23 06:41:57;;;;;;;16.90;15.13;;;;;;;24.13;48.74;99126.47;6947370;28;20206;-88
2023/06/23 06:45:19;;;;;;;17.67;15.87;;;;;;;24.08;49.16;99141.06;6947003;28;20203;-88
2023/06/23 06:48:41;;;;;;;17.70;15.90;;;;;;;23.46;49.56;99068.38;6946422;28;20226;-87
2023/06/23 06:52:05;;;;;;;17.53;15.73;;;;;;;23.24;49.62;99023.91;6946466;28;20250;-88
2023/06/23 06:55:26;;;;;;;20.47;16.63;;;;;;;23.51;49.38;99090.38;6946809;28;20207;-88
2023/06/23 06:58:48;;;;;;;17.80;16.00;;;;;;;24.65;47.61;99157.81;6946336;28;20699;-87
2023/06/23 07:02:11;;;;;;;17.57;15.47;;;;;;;24.47;47.97;99172.25;6947763;28;20208;-89
2023/06/23 07:05:32;;;;;;;17.30;15.47;;;;;;;24.04;47.75;99137.25;6954207;28;20330;-88
2023/06/23 07:08:55;;;;;;;18.03;16.00;;;;;;;23.65;48.34;99110.72;6948728;28;20233;-87
2023/06/23 07:12:16;;;;;;;17.97;16.17;;;;;;;24.21;48.65;99189.22;6946147;28;20365;-88
2023/06/23 07:15:38;;;;;;;18.23;15.47;;;;;;;24.00;48.13;99177.47;6946449;28;20292;-88
2023/06/23 07:19:00;;;;;;;18.20;16.20;;;;;;;23.98;48.59;99187.13;6946344;28;20231;-88
2023/06/23 07:22:21;;;;;;;16.63;14.97;;;;;;;23.90;48.84;99198.75;6946378;28;20220;-88
2023/06/23 07:25:44;;;;;;;14.13;12.63;;;;;;;24.05;47.79;99207.78;6946082;28;20298;-88
2023/06/23 07:29:06;;;;;;;17.00;14.33;;;;;;;23.80;47.58;99144.50;6945697;28;20309;-88
2023/06/23 07:32:27;;;;;;;17.03;15.23;;;;;;;24.18;48.11;99211.88;6946198;28;20319;-87
2023/06/23 07:35:49;;;;;;;16.57;14.47;;;;;;;24.36;47.55;99216.72;6946321;28;20261;-87
2023/06/23 07:39:10;;;;;;;14.93;13.33;;;;;;;24.29;47.98;99222.53;6945964;28;20319;-86
2023/06/23 07:42:33;;;;;;;18.00;13.90;;;;;;;23.81;48.57;99209.50;6946238;28;20735;-87
2023/06/23 07:45:55;;;;;;;13.90;12.50;;;;;;;24.62;46.72;99235.63;6946461;28;20293;-87
2023/06/23 07:49:16;;;;;;;14.23;12.73;;;;;;;24.51;47.48;99241.44;6945762;28;20286;-86
2023/06/23 07:52:38;;;;;;;15.07;13.57;;;;;;;24.47;47.55;99240.34;6948965;28;20373;-88
2023/06/23 07:55:59;;;;;;;15.10;13.60;;;;;;;24.01;47.00;99165.34;6975841;28;20209;-88
2023/06/23 07:59:22;;;;;;;17.40;14.63;;;;;;;24.02;48.06;99255.16;6965476;28;20309;-88
2023/06/23 08:02:44;;;;;;;15.77;14.10;;;;;;;24.17;47.58;99259.78;6956777;28;20214;-87
2023/06/23 08:06:05;;;;;;;16.07;13.47;;;;;;;24.11;47.87;99263.66;6972238;28;20230;-88
2023/06/23 08:09:27;;;;;;;15.10;13.30;;;;;;;24.11;47.79;99249.88;6945209;28;20276;-87
2023/06/23 08:12:48;;;;;;;14.50;12.97;;;;;;;24.12;47.27;99226.78;6945791;28;20238;-90
2023/06/23 08:16:11;;;;;;;13.90;12.47;;;;;;;24.03;47.56;99207.25;6945655;28;20345;-85
2023/06/23 08:19:35;;;;;;;12.43;11.23;;;;;;;24.74;46.88;99276.63;6945191;28;20246;-88
2023/06/23 08:22:56;;;;;;;14.57;12.93;;;;;;;24.85;46.07;99290.09;6949095;28;20288;-88
2023/06/23 08:26:19;;;;;;;13.90;12.03;;;;;;;25.34;45.23;99282.56;6950611;28;20674;-87
2023/06/23 08:29:41;;;;;;;15.17;11.50;;;;;;;25.56;44.70;99241.50;6949139;28;20312;-88
2023/06/23 08:33:04;;;;;;;11.17;10.07;;;;;;;25.82;44.22;99267.75;6949883;28;20265;-88
2023/06/23 08:36:25;;;;;;;12.10;10.80;;;;;;;25.01;43.80;99161.13;6949966;28;20290;-88
2023/06/23 08:39:47;;;;;;;12.87;10.57;;;;;;;25.37;45.46;99290.25;6949999;28;20237;-88
2023/06/23 08:43:09;;;;;;;12.00;9.50;;;;;;;25.64;43.47;99196.66;6953025;28;20209;-87
2023/06/23 08:46:32;;;;;;;11.80;10.60;;;;;;;25.98;41.95;99211.22;6949728;28;20262;-88
2023/06/23 08:49:55;;;;;;;11.67;10.47;;;;;;;26.14;41.37;99173.97;6966757;28;20256;-88
2023/06/23 08:53:17;;;;;;;9.90;8.90;;;;;;;26.52;42.42;99274.38;6980305;28;20228;-88
2023/06/23 08:56:39;;;;;;;10.83;9.70;;;;;;;26.77;41.32;99266.59;6976402;28;20341;-88
2023/06/23 09:00:01;;;;;;;11.67;10.03;;;;;;;27.26;40.35;99255.06;6958892;28;20644;-88
2023/06/23 09:03:23;;;;;;;9.60;8.70;;;;;;;26.77;40.85;99277.66;6949847;28;20196;-88
2023/06/23 09:06:46;;;;;;;9.53;7.97;;;;;;;26.20;40.33;99225.31;6949017;28;20691;-88
2023/06/23 09:10:09;;;;;;;8.30;7.50;;;;;;;27.20;38.84;99282.00;6949459;28;20712;-87
2023/06/23 09:13:35;;;;;;;7.73;7.03;;;;;;;27.16;39.72;99283.75;6949102;28;20833;-87
2023/06/23 09:16:58;;;;;;;7.27;6.53;;;;;;;27.89;37.17;99259.75;6951132;28;20186;-88
2023/06/23 09:20:20;;;;;;;6.80;6.10;;;;;;;28.04;37.34;99272.50;6976606;28;20314;-88
2023/06/23 09:27:41;;;;;;;8.63;7.83;;;;;;;27.68;37.74;99294.50;6969481;27;20614;-87
2023/06/23 09:31:09;;;;;;;9.50;8.23;;;;;;;27.54;38.76;99293.63;6937463;28;20226;-87
2023/06/23 09:34:34;;;;;;;8.47;7.70;;;;;;;27.74;37.64;99286.91;6925484;28;20208;-88
2023/06/23 09:37:56;;;;;;;10.13;9.07;;;;;;;27.18;38.79;99289.78;6937635;28;20201;-87
2023/06/23 09:41:19;;;;;;;9.13;7.53;;;;;;;27.04;39.40;99296.38;6937683;28;20219;-87
2023/06/23 09:44:45;;;;;;;9.13;8.23;;;;;;;28.13;37.38;99298.41;6937619;28;20266;-87
2023/06/23 09:48:16;;;;;;;8.13;7.33;;;;;;;28.20;36.42;99296.84;6937429;28;20188;-87
2023/06/23 09:51:38;;;;;;;8.63;7.03;;;;;;;27.93;36.37;99255.25;6924283;28;20755;-82
2023/06/23 09:54:59;;;;;;;7.83;7.03;;;;;;;28.49;34.51;99178.06;6935453;28;20664;-89
2023/06/23 09:58:21;;;;;;;8.53;7.70;;;;;;;28.65;34.85;99284.84;6937574;27;20248;-86
2023/06/23 10:01:46;;;;;;;6.03;5.53;;;;;;;28.38;34.89;99179.44;6938050;28;20320;-87
2023/06/23 10:05:08;;;;;;;8.07;6.67;;;;;;;29.31;34.64;99295.28;6937490;28;20222;-88
2023/06/23 10:08:30;;;;;;;7.83;7.13;;;;;;;28.71;35.90;99308.56;6914366;28;20646;-85
2023/06/23 10:11:51;;;;;;;6.87;5.50;;;;;;;29.12;33.68;99298.22;6923033;28;20248;-86
2023/06/23 10:15:13;;;;;;;6.43;5.83;;;;;;;29.87;32.80;99292.72;6937418;28;20321;-87
2023/06/23 10:18:36;;;;;;;6.00;5.13;;;;;;;28.93;33.50;99224.50;6937634;28;20414;-85
2023/06/23 10:21:58;;;;;;;6.77;5.53;;;;;;;29.05;33.93;99299.78;6937114;28;20196;-85
2023/06/23 10:25:21;;;;;;;8.30;6.77;;;;;;;28.55;34.60;99306.44;6936976;28;20752;-86
2023/06/23 10:28:44;;;;;;;6.57;5.50;;;;;;;28.50;34.76;99307.38;6932021;28;20207;-88
2023/06/23 10:32:08;;;;;;;10.87;5.37;;;;;;;28.54;34.92;99291.72;6937314;28;20292;-87
2023/06/23 10:35:32;;;;;;;7.67;6.00;;;;;;;28.24;35.09;99295.09;6939949;28;20257;-86
2023/06/23 10:38:55;;;;;;;7.87;5.70;;;;;;;28.30;35.32;99287.53;6908048;28;20235;-84
2023/06/23 10:42:16;;;;;;;12.60;5.80;;;;;;;27.94;35.36;99244.97;6906489;28;20582;-87
2023/06/23 10:45:38;;;;;;;6.10;5.20;;;;;;;29.28;33.68;99293.94;6912552;28;20227;-86
2023/06/23 10:49:00;;;;;;;6.43;5.83;;;;;;;28.90;34.32;99287.03;6890352;28;20232;-87
2023/06/23 10:52:23;;;;;;;6.73;5.47;;;;;;;28.46;35.19;99291.63;6891190;28;20560;-86
2023/06/23 10:55:46;;;;;;;5.33;4.83;;;;;;;27.93;35.66;99313.47;6890918;28;20202;-86
2023/06/23 10:59:21;;;;;;;6.33;4.93;;;;;;;27.73;35.88;99310.22;6895664;28;20577;-84
2023/06/23 11:02:52;;;;;;;5.87;5.23;;;;;;;27.88;34.78;99287.78;6898317;28;20202;-85
2023/06/23 11:06:26;;;;;;;7.17;6.47;;;;;;;26.90;37.05;99321.19;6918176;28;20228;-86
2023/06/23 11:09:54;;;;;;;6.80;5.87;;;;;;;27.80;36.19;99325.34;6917357;28;20265;-85
2023/06/23 11:13:16;;;;;;;6.13;5.53;;;;;;;28.82;33.57;99309.16;6917288;28;20214;-87
2023/06/23 11:16:38;;;;;;;5.17;4.77;;;;;;;28.45;34.27;99296.38;6916950;28;20363;-87
2023/06/23 11:20:00;;;;;;;5.97;5.03;;;;;;;29.38;32.50;99298.44;6910951;28;20308;-87
2023/06/23 11:23:21;;;;;;;5.90;5.13;;;;;;;30.49;31.08;99308.28;6890474;28;20241;-86
2023/06/23 11:26:46;;;;;;;6.07;5.10;;;;;;;30.08;32.28;99302.97;6889384;28;20261;-87
2023/06/23 11:30:15;;;;;;;5.60;5.10;;;;;;;29.96;32.53;99310.28;6889962;28;20654;-87
2023/06/23 11:33:37;;;;;;;6.90;5.50;;;;;;;29.10;33.55;99283.00;6889996;28;20587;-87
2023/06/23 11:36:59;;;;;;;6.80;6.20;;;;;;;28.47;35.17;99319.06;6895867;28;20211;-87
2023/06/23 11:40:22;;;;;;;5.97;5.47;;;;;;;28.32;34.38;99283.28;6916868;28;20364;-87
2023/06/23 11:43:45;;;;;;;6.77;5.33;;;;;;;29.10;34.34;99317.16;6894691;28;20341;-87
2023/06/23 11:47:07;;;;;;;5.50;5.00;;;;;;;29.33;33.32;99318.84;6893196;28;20239;-86
2023/06/23 11:50:28;;;;;;;5.17;4.57;;;;;;;29.38;33.00;99304.00;6888123;28;20262;-86
2023/06/23 11:53:51;;;;;;;6.47;4.87;;;;;;;29.73;31.70;99286.44;6889628;28;20302;-87
2023/06/23 11:57:12;;;;;;;5.33;4.83;;;;;;;31.10;30.51;99311.69;6888974;28;20240;-87
2023/06/23 12:00:35;;;;;;;5.33;4.93;;;;;;;30.26;32.04;99324.22;6910833;28;20320;-86
2023/06/23 12:03:57;;;;;;;6.60;5.33;;;;;;;30.14;32.67;99314.84;6917012;28;20776;-85
2023/06/23 12:07:19;;;;;;;7.03;5.03;;;;;;;29.52;32.77;99316.69;6916200;28;20314;-85
2023/06/23 12:10:42;;;;;;;7.27;4.73;;;;;;;29.54;32.96;99320.00;6915957;28;20330;-86
2023/06/23 12:14:03;;;;;;;5.00;4.50;;;;;;;29.45;31.51;99324.66;6914710;28;20671;-86
2023/06/23 12:17:26;;;;;;;5.13;4.43;;;;;;;28.84;32.95;99276.38;6916018;28;20298;-86
2023/06/23 12:20:48;;;;;;;4.50;4.10;;;;;;;30.35;30.14;99305.59;6916293;28;20225;-86
2023/06/23 12:24:10;;;;;;;4.30;3.90;;;;;;;30.12;30.04;99306.81;6933133;28;20237;-85
2023/06/23 12:27:31;;;;;;;4.90;4.07;;;;;;;30.72;29.26;99280.00;6926605;28;20225;-86
2023/06/23 12:30:53;;;;;;;5.10;4.27;;;;;;;31.01;30.00;99312.84;6911298;28;20234;-85
2023/06/23 12:34:16;;;;;;;5.03;4.60;;;;;;;30.66;30.61;99317.50;6904207;28;20323;-86
2023/06/23 12:37:45;;;;;;;4.60;4.20;;;;;;;30.41;29.99;99284.81;6888285;28;20304;-85
2023/06/23 12:41:16;;;;;;;4.60;3.90;;;;;;;29.40;31.18;99327.56;6888775;28;20229;-86
2023/06/23 12:44:39;;;;;;;4.07;3.73;;;;;;;28.93;31.29;99319.75;6888703;28;20288;-85
2023/06/23 12:48:01;;;;;;;4.27;3.37;;;;;;;28.52;31.87;99296.78;6903372;28;20560;-86
2023/06/23 12:51:33;;;;;;;3.93;3.53;;;;;;;27.93;32.44;99323.72;6889146;28;20318;-86
2023/06/23 12:54:56;;;;;;;5.90;3.50;;;;;;;28.21;31.47;99223.63;6889434;28;20212;-85
2023/06/23 12:58:27;;;;;;;4.40;4.00;;;;;;;29.26;30.17;99318.44;6888383;28;20215;-87
2023/06/23 13:01:50;;;;;;;3.60;3.30;;;;;;;29.35;29.51;99304.59;6889046;28;20199;-87
2023/06/23 13:05:11;;;;;;;3.60;3.30;;;;;;;29.46;29.37;99301.28;6888714;28;20200;-87
2023/06/23 13:08:34;;;;;;;3.80;3.33;;;;;;;29.77;29.08;99321.63;6888155;28;20292;-88
2023/06/23 13:11:56;;;;;;;5.00;3.47;;;;;;;29.34;29.95;99322.41;6888769;28;20779;-86
2023/06/23 13:15:18;;;;;;;3.57;3.27;;;;;;;28.79;30.11;99329.22;6888681;28;20348;-87
2023/06/23 13:18:39;;;;;;;3.83;3.10;;;;;;;28.44;30.94;99305.84;6885367;28;20556;-87
2023/06/23 13:22:01;;;;;;;3.70;3.40;;;;;;;28.91;30.08;99310.88;6905125;28;20748;-88
2023/06/23 13:25:24;;;;;;;3.67;3.23;;;;;;;29.23;30.60;99319.06;6914328;28;20317;-89
2023/06/23 13:28:45;;;;;;;3.93;3.40;;;;;;;29.01;30.28;99310.69;6905911;28;20257;-88
2023/06/23 13:32:08;;;;;;;3.83;3.37;;;;;;;29.06;29.65;99324.47;6915172;28;20267;-89
2023/06/23 13:35:30;;;;;;;3.90;3.57;;;;;;;28.52;30.22;99321.75;6914653;28;20203;-88
2023/06/23 13:38:51;;;;;;;3.93;3.50;;;;;;;28.09;31.20;99305.69;6914432;28;20307;-88
2023/06/23 13:42:14;;;;;;;4.20;3.57;;;;;;;30.22;28.72;99309.31;6909500;28;20217;-88
2023/06/23 13:45:36;;;;;;;3.50;3.20;;;;;;;30.38;28.10;99316.06;6906926;28;20264;-88
2023/06/23 13:48:57;;;;;;;4.43;4.03;;;;;;;30.37;28.07;99324.75;6889575;28;20235;-88
2023/06/23 13:52:19;;;;;;;4.13;3.73;;;;;;;30.34;28.43;99309.53;6890275;28;20221;-88
2023/06/23 13:55:40;;;;;;;5.03;3.63;;;;;;;30.63;27.45;99298.66;6890421;28;20411;-88
2023/06/23 13:59:03;;;;;;;3.80;3.40;;;;;;;30.62;26.75;99299.81;6889967;28;20279;-87
2023/06/23 14:02:25;;;;;;;4.83;3.47;;;;;;;30.26;26.99;99248.28;6890560;28;20248;-88
2023/06/23 14:05:46;;;;;;;4.33;3.37;;;;;;;30.81;26.86;99317.06;6888861;28;20249;-87
2023/06/23 14:09:09;;;;;;;4.33;3.93;;;;;;;29.72;28.22;99302.28;6887242;28;20286;-86
2023/06/23 14:12:31;;;;;;;4.37;3.97;;;;;;;29.91;28.79;99322.34;6891042;28;20206;-86
2023/06/23 14:15:53;;;;;;;6.03;4.07;;;;;;;29.55;29.52;99321.63;6899504;28;20293;-86
2023/06/23 14:19:15;;;;;;;4.00;3.70;;;;;;;29.38;29.62;99332.59;6908915;28;20389;-86
2023/06/23 14:22:37;;;;;;;5.17;3.90;;;;;;;29.35;29.84;99335.16;6919480;28;20212;-86
2023/06/23 14:25:58;;;;;;;4.40;4.00;;;;;;;29.71;29.26;99305.41;6919101;28;20233;-86
2023/06/23 14:29:24;;;;;;;4.70;3.80;;;;;;;29.58;29.20;99315.44;6917820;28;20276;-86
2023/06/23 14:32:48;;;;;;;4.30;3.67;;;;;;;29.07;29.63;99309.44;6913919;28;20208;-85
2023/06/23 14:36:10;;;;;;;5.17;3.77;;;;;;;29.45;29.68;99324.66;6918253;28;20213;-86
2023/06/23 14:39:31;;;;;;;3.90;3.50;;;;;;;30.18;28.42;99332.50;6917814;28;20229;-86
2023/06/23 14:42:53;;;;;;;5.40;3.60;;;;;;;29.66;28.56;99322.22;6918592;28;20210;-89
2023/06/23 14:46:14;;;;;;;4.13;3.73;;;;;;;29.71;29.30;99339.56;6919524;28;20278;-89
2023/06/23 14:49:37;;;;;;;4.47;3.70;;;;;;;29.71;29.48;99306.22;6919848;28;20315;-88
2023/06/23 14:52:59;;;;;;;4.33;3.57;;;;;;;28.88;29.89;99242.13;6919258;28;20202;-88
2023/06/23 14:56:21;;;;;;;4.50;4.10;;;;;;;28.48;31.02;99347.66;6918639;28;20257;-87
2023/06/23 14:59:43;;;;;;;5.00;3.93;;;;;;;29.16;29.71;99346.47;6917140;28;20223;-87
2023/06/23 15:03:04;;;;;;;4.77;4.23;;;;;;;28.80;29.60;99341.97;6918864;28;20306;-87
2023/06/23 15:06:27;;;;;;;4.23;3.83;;;;;;;28.23;29.61;99234.38;6918537;28;20255;-88
2023/06/23 15:09:49;;;;;;;3.97;3.67;;;;;;;30.00;28.19;99345.50;6913750;28;20254;-87
2023/06/23 15:13:10;;;;;;;3.40;3.20;;;;;;;29.33;28.43;99274.38;6891120;28;20285;-86
2023/06/23 15:16:32;;;;;;;4.20;3.80;;;;;;;29.70;28.27;99356.56;6891560;28;20298;-87
2023/06/23 15:19:53;;;;;;;4.43;3.60;;;;;;;29.96;27.91;99375.06;6906467;28;20359;-86
2023/06/23 15:23:16;;;;;;;3.70;3.40;;;;;;;29.79;28.42;99374.16;6917480;28;20360;-87
2023/06/23 15:26:38;;;;;;;3.80;3.50;;;;;;;29.26;29.13;99356.50;6919754;28;20368;-86
2023/06/23 15:29:59;;;;;;;5.30;4.00;;;;;;;29.50;27.96;99370.94;6923179;28;20320;-86
2023/06/23 15:33:21;;;;;;;3.70;3.40;;;;;;;28.69;28.91;99332.22;6918411;28;20305;-87
2023/06/23 15:36:43;;;;;;;4.23;3.70;;;;;;;29.68;26.98;99358.84;6904526;28;20249;-86
2023/06/23 15:40:09;;;;;;;4.23;3.87;;;;;;;29.53;27.89;99359.22;6895945;28;23819;-86
2023/06/23 15:43:30;;;;;;;3.80;3.50;;;;;;;29.05;28.37;99345.06;6908775;28;20206;-87
2023/06/23 15:46:52;;;;;;;3.67;3.37;;;;;;;28.45;28.42;99310.25;6917101;28;20237;-87
2023/06/23 15:50:13;;;;;;;4.63;3.47;;;;;;;28.94;28.25;99270.56;6916735;28;20230;-87
2023/06/23 15:53:35;;;;;;;3.80;3.40;;;;;;;28.61;29.25;99371.81;6894399;28;20697;-87